sensor_id;sensor_type;location;lat;lon;timestamp;pressure;altitude;pressure_sealevel;temperature;humidity
63088;BME280;49173;43.164;27.786;2022-11-20T00:01:20;100171.97;;;15.17;97.48
63088;BME280;49173;43.164;27.786;2022-11-20T00:03:46;100162.88;;;15.18;97.58
63088;BME280;49173;43.164;27.786;2022-11-20T00:06:16;100157.47;;;15.18;97.26
63088;BME280;49173;43.164;27.786;2022-11-20T00:08:42;100154.88;;;15.16;96.93
63088;BME280;49173;43.164;27.786;2022-11-20T00:11:10;100155.97;;;15.14;96.22
63088;BME280;49173;43.164;27.786;2022-11-20T00:13:36;100145.41;;;15.10;96.08
63088;BME280;49173;43.164;27.786;2022-11-20T00:16:05;100147.22;;;15.10;96.42
63088;BME280;49173;43.164;27.786;2022-11-20T00:18:32;100146.00;;;15.14;97.81
63088;BME280;49173;43.164;27.786;2022-11-20T00:21:06;100152.91;;;15.18;98.51
63088;BME280;49173;43.164;27.786;2022-11-20T00:23:33;100156.22;;;15.22;99.09
63088;BME280;49173;43.164;27.786;2022-11-20T00:26:07;100149.84;;;15.23;99.34
63088;BME280;49173;43.164;27.786;2022-11-20T00:28:33;100146.91;;;15.26;99.50
63088;BME280;49173;43.164;27.786;2022-11-20T00:31:06;100144.72;;;15.31;99.57
63088;BME280;49173;43.164;27.786;2022-11-20T00:33:33;100143.84;;;15.30;99.54
63088;BME280;49173;43.164;27.786;2022-11-20T00:36:10;100137.06;;;15.36;99.52
63088;BME280;49173;43.164;27.786;2022-11-20T00:38:37;100149.50;;;15.38;100.00
63088;BME280;49173;43.164;27.786;2022-11-20T00:41:05;100144.47;;;15.45;100.00
63088;BME280;49173;43.164;27.786;2022-11-20T00:43:31;100146.47;;;15.54;100.00
63088;BME280;49173;43.164;27.786;2022-11-20T00:46:05;100138.41;;;15.65;100.00
63088;BME280;49173;43.164;27.786;2022-11-20T00:48:31;100143.19;;;15.73;100.00
63088;BME280;49173;43.164;27.786;2022-11-20T00:50:57;100149.97;;;15.79;100.00
63088;BME280;49173;43.164;27.786;2022-11-20T00:53:23;100145.78;;;15.86;100.00
63088;BME280;49173;43.164;27.786;2022-11-20T00:55:59;100149.94;;;15.90;100.00
63088;BME280;49173;43.164;27.786;2022-11-20T00:58:35;100156.09;;;15.92;99.81
63088;BME280;49173;43.164;27.786;2022-11-20T01:01:08;100162.00;;;15.97;99.44
63088;BME280;49173;43.164;27.786;2022-11-20T01:03:37;100162.63;;;16.01;99.02
63088;BME280;49173;43.164;27.786;2022-11-20T01:06:10;100156.69;;;16.07;98.50
63088;BME280;49173;43.164;27.786;2022-11-20T01:08:37;100153.50;;;16.13;98.44
63088;BME280;49173;43.164;27.786;2022-11-20T01:11:09;100159.25;;;16.19;98.39
63088;BME280;49173;43.164;27.786;2022-11-20T01:13:35;100155.81;;;16.29;97.58
63088;BME280;49173;43.164;27.786;2022-11-20T01:18:34;100155.56;;;16.32;97.42
63088;BME280;49173;43.164;27.786;2022-11-20T01:21:05;100155.28;;;16.35;97.31
63088;BME280;49173;43.164;27.786;2022-11-20T01:23:32;100157.63;;;16.39;96.79
63088;BME280;49173;43.164;27.786;2022-11-20T01:26:06;100151.97;;;16.42;96.67
63088;BME280;49173;43.164;27.786;2022-11-20T01:28:33;100153.44;;;16.46;96.33
63088;BME280;49173;43.164;27.786;2022-11-20T01:30:59;100141.09;;;16.54;96.25
63088;BME280;49173;43.164;27.786;2022-11-20T01:33:26;100142.56;;;16.58;95.89
63088;BME280;49173;43.164;27.786;2022-11-20T01:35:52;100142.56;;;16.58;95.49
63088;BME280;49173;43.164;27.786;2022-11-20T01:38:18;100140.72;;;16.58;95.57
63088;BME280;49173;43.164;27.786;2022-11-20T01:40:54;100144.44;;;16.57;95.74
63088;BME280;49173;43.164;27.786;2022-11-20T01:43:20;100129.88;;;16.58;95.13
63088;BME280;49173;43.164;27.786;2022-11-20T01:51:44;100140.31;;;16.63;95.07
63088;BME280;49173;43.164;27.786;2022-11-20T01:54:32;100127.38;;;16.66;94.64
63088;BME280;49173;43.164;27.786;2022-11-20T01:57:00;100126.25;;;16.69;94.61
63088;BME280;49173;43.164;27.786;2022-11-20T01:59:28;100135.03;;;16.72;94.39
63088;BME280;49173;43.164;27.786;2022-11-20T02:01:55;100135.63;;;16.76;94.25
63088;BME280;49173;43.164;27.786;2022-11-20T02:04:22;100135.53;;;16.78;94.17
63088;BME280;49173;43.164;27.786;2022-11-20T02:07:00;100143.25;;;16.82;93.81
63088;BME280;49173;43.164;27.786;2022-11-20T02:09:28;100140.16;;;16.87;93.40
63088;BME280;49173;43.164;27.786;2022-11-20T02:11:54;100139.28;;;16.86;93.25
63088;BME280;49173;43.164;27.786;2022-11-20T02:14:21;100140.41;;;16.84;93.01
63088;BME280;49173;43.164;27.786;2022-11-20T02:16:48;100134.72;;;16.87;93.08
63088;BME280;49173;43.164;27.786;2022-11-20T02:19:24;100129.78;;;16.92;92.65
63088;BME280;49173;43.164;27.786;2022-11-20T02:24:22;100120.38;;;16.96;92.33
63088;BME280;49173;43.164;27.786;2022-11-20T02:29:40;100120.84;;;17.01;92.00
63088;BME280;49173;43.164;27.786;2022-11-20T02:32:04;100124.28;;;17.03;91.91
63088;BME280;49173;43.164;27.786;2022-11-20T02:34:31;100124.16;;;17.05;91.88
63088;BME280;49173;43.164;27.786;2022-11-20T02:36:58;100129.47;;;17.06;91.77
63088;BME280;49173;43.164;27.786;2022-11-20T02:39:26;100117.50;;;17.09;91.62
63088;BME280;49173;43.164;27.786;2022-11-20T02:41:54;100124.75;;;17.08;91.61
63088;BME280;49173;43.164;27.786;2022-11-20T02:44:21;100114.78;;;17.09;91.68
63088;BME280;49173;43.164;27.786;2022-11-20T02:46:47;100099.66;;;17.06;91.64
63088;BME280;49173;43.164;27.786;2022-11-20T02:49:12;100103.22;;;17.07;91.62
63088;BME280;49173;43.164;27.786;2022-11-20T02:51:38;100096.06;;;17.06;91.55
63088;BME280;49173;43.164;27.786;2022-11-20T02:54:04;100095.19;;;17.05;91.56
63088;BME280;49173;43.164;27.786;2022-11-20T02:56:30;100104.59;;;17.01;91.60
63088;BME280;49173;43.164;27.786;2022-11-20T02:58:56;100110.00;;;17.01;91.62
63088;BME280;49173;43.164;27.786;2022-11-20T03:01:22;100120.00;;;17.00;91.57
63088;BME280;49173;43.164;27.786;2022-11-20T03:03:48;100117.28;;;17.00;91.53
63088;BME280;49173;43.164;27.786;2022-11-20T03:06:15;100109.41;;;16.97;91.64
63088;BME280;49173;43.164;27.786;2022-11-20T03:08:42;100116.69;;;16.97;91.73
63088;BME280;49173;43.164;27.786;2022-11-20T03:11:08;100104.25;;;16.94;91.71
63088;BME280;49173;43.164;27.786;2022-11-20T03:13:35;100102.03;;;16.99;91.53
63088;BME280;49173;43.164;27.786;2022-11-20T03:16:21;100108.88;;;17.03;91.21
63088;BME280;49173;43.164;27.786;2022-11-20T03:18:48;100104.06;;;17.07;90.91
63088;BME280;49173;43.164;27.786;2022-11-20T03:21:14;100106.50;;;17.10;90.65
63088;BME280;49173;43.164;27.786;2022-11-20T03:23:41;100102.06;;;17.09;90.59
63088;BME280;49173;43.164;27.786;2022-11-20T03:26:21;100100.09;;;17.11;90.53
63088;BME280;49173;43.164;27.786;2022-11-20T03:28:58;100086.13;;;17.16;89.64
63088;BME280;49173;43.164;27.786;2022-11-20T03:31:26;100077.84;;;17.17;89.29
63088;BME280;49173;43.164;27.786;2022-11-20T03:33:53;100068.88;;;17.17;89.19
63088;BME280;49173;43.164;27.786;2022-11-20T03:36:20;100075.88;;;17.19;88.75
63088;BME280;49173;43.164;27.786;2022-11-20T03:38:47;100073.91;;;17.21;88.65
63088;BME280;49173;43.164;27.786;2022-11-20T03:41:21;100076.47;;;17.23;88.27
63088;BME280;49173;43.164;27.786;2022-11-20T03:43:57;100072.75;;;17.24;87.93
63088;BME280;49173;43.164;27.786;2022-11-20T03:46:24;100066.47;;;17.23;87.81
63088;BME280;49173;43.164;27.786;2022-11-20T03:48:50;100070.91;;;17.24;87.64
63088;BME280;49173;43.164;27.786;2022-11-20T03:51:22;100067.09;;;17.27;87.67
63088;BME280;49173;43.164;27.786;2022-11-20T03:53:49;100059.06;;;17.25;87.48
63088;BME280;49173;43.164;27.786;2022-11-20T03:56:17;100065.34;;;17.26;87.44
63088;BME280;49173;43.164;27.786;2022-11-20T03:58:44;100066.19;;;17.26;87.39
63088;BME280;49173;43.164;27.786;2022-11-20T04:01:18;100052.78;;;17.25;87.29
63088;BME280;49173;43.164;27.786;2022-11-20T04:03:46;100055.63;;;17.23;87.21
63088;BME280;49173;43.164;27.786;2022-11-20T04:06:18;100052.78;;;17.25;86.84
63088;BME280;49173;43.164;27.786;2022-11-20T04:08:44;100064.75;;;17.22;86.98
63088;BME280;49173;43.164;27.786;2022-11-20T04:11:19;100062.19;;;17.21;87.06
63088;BME280;49173;43.164;27.786;2022-11-20T04:13:46;100059.72;;;17.18;87.10
63088;BME280;49173;43.164;27.786;2022-11-20T04:16:13;100065.28;;;17.16;87.10
63088;BME280;49173;43.164;27.786;2022-11-20T04:18:39;100051.03;;;17.14;86.97
63088;BME280;49173;43.164;27.786;2022-11-20T04:21:05;100054.72;;;17.13;87.22
63088;BME280;49173;43.164;27.786;2022-11-20T04:23:32;100038.56;;;17.12;86.76
63088;BME280;49173;43.164;27.786;2022-11-20T04:26:03;100033.03;;;17.13;86.75
63088;BME280;49173;43.164;27.786;2022-11-20T04:28:30;100041.16;;;17.13;86.90
63088;BME280;49173;43.164;27.786;2022-11-20T04:31:05;100054.84;;;17.12;86.82
63088;BME280;49173;43.164;27.786;2022-11-20T04:33:32;100051.28;;;17.11;86.71
63088;BME280;49173;43.164;27.786;2022-11-20T04:36:10;100047.84;;;17.09;86.51
63088;BME280;49173;43.164;27.786;2022-11-20T04:38:36;100050.84;;;17.06;86.68
63088;BME280;49173;43.164;27.786;2022-11-20T04:41:07;100040.94;;;17.05;86.93
63088;BME280;49173;43.164;27.786;2022-11-20T04:43:34;100039.25;;;17.04;87.05
63088;BME280;49173;43.164;27.786;2022-11-20T04:46:00;100038.53;;;17.02;87.06
63088;BME280;49173;43.164;27.786;2022-11-20T04:48:27;100028.41;;;17.04;87.05
63088;BME280;49173;43.164;27.786;2022-11-20T04:50:54;100024.97;;;17.02;87.17
63088;BME280;49173;43.164;27.786;2022-11-20T04:53:20;100013.56;;;16.98;87.29
63088;BME280;49173;43.164;27.786;2022-11-20T04:55:47;100017.22;;;16.97;87.34
63088;BME280;49173;43.164;27.786;2022-11-20T04:58:13;100025.34;;;16.97;87.21
63088;BME280;49173;43.164;27.786;2022-11-20T05:00:39;100041.50;;;16.99;87.12
63088;BME280;49173;43.164;27.786;2022-11-20T05:03:05;100048.03;;;16.96;87.21
63088;BME280;49173;43.164;27.786;2022-11-20T05:05:31;100044.47;;;16.96;87.26
63088;BME280;49173;43.164;27.786;2022-11-20T05:07:58;100040.06;;;16.95;87.30
63088;BME280;49173;43.164;27.786;2022-11-20T05:10:25;100036.47;;;16.94;87.33
63088;BME280;49173;43.164;27.786;2022-11-20T05:12:51;100026.34;;;16.96;87.28
63088;BME280;49173;43.164;27.786;2022-11-20T05:15:17;100030.91;;;16.96;87.22
63088;BME280;49173;43.164;27.786;2022-11-20T05:17:50;100022.53;;;16.99;86.92
63088;BME280;49173;43.164;27.786;2022-11-20T05:20:17;100032.63;;;16.97;87.03
63088;BME280;49173;43.164;27.786;2022-11-20T05:22:43;100011.81;;;16.97;87.06
63088;BME280;49173;43.164;27.786;2022-11-20T05:25:10;100015.25;;;16.99;87.02
63088;BME280;49173;43.164;27.786;2022-11-20T05:27:36;100029.81;;;16.98;86.90
63088;BME280;49173;43.164;27.786;2022-11-20T05:30:03;100026.97;;;17.00;86.82
63088;BME280;49173;43.164;27.786;2022-11-20T05:32:29;100026.09;;;16.99;86.93
63088;BME280;49173;43.164;27.786;2022-11-20T05:34:55;100029.69;;;17.00;86.88
63088;BME280;49173;43.164;27.786;2022-11-20T05:37:20;100024.97;;;17.02;86.69
63088;BME280;49173;43.164;27.786;2022-11-20T05:39:46;100040.25;;;17.03;86.56
63088;BME280;49173;43.164;27.786;2022-11-20T05:42:12;100046.38;;;17.05;86.47
63088;BME280;49173;43.164;27.786;2022-11-20T05:44:57;100042.69;;;17.06;86.33
63088;BME280;49173;43.164;27.786;2022-11-20T05:47:23;100039.84;;;17.08;86.13
63088;BME280;49173;43.164;27.786;2022-11-20T05:49:49;100040.84;;;17.07;86.23
63088;BME280;49173;43.164;27.786;2022-11-20T05:52:15;100045.84;;;17.11;86.36
63088;BME280;49173;43.164;27.786;2022-11-20T05:54:40;100047.56;;;17.12;86.06
63088;BME280;49173;43.164;27.786;2022-11-20T05:57:06;100038.47;;;17.13;85.90
63088;BME280;49173;43.164;27.786;2022-11-20T05:59:32;100052.44;;;17.18;85.51
63088;BME280;49173;43.164;27.786;2022-11-20T06:01:57;100043.31;;;17.19;85.49
63088;BME280;49173;43.164;27.786;2022-11-20T06:04:23;100047.78;;;17.20;85.50
63088;BME280;49173;43.164;27.786;2022-11-20T06:06:49;100043.91;;;17.23;85.20
63088;BME280;49173;43.164;27.786;2022-11-20T06:09:15;100036.78;;;17.22;85.45
63088;BME280;49173;43.164;27.786;2022-11-20T06:11:41;100054.78;;;17.23;85.37
63088;BME280;49173;43.164;27.786;2022-11-20T06:14:06;100062.06;;;17.22;85.44
63088;BME280;49173;43.164;27.786;2022-11-20T06:16:32;100064.47;;;17.25;85.29
63088;BME280;49173;43.164;27.786;2022-11-20T06:18:58;100063.63;;;17.25;85.02
63088;BME280;49173;43.164;27.786;2022-11-20T06:21:24;100069.78;;;17.27;85.06
63088;BME280;49173;43.164;27.786;2022-11-20T06:23:51;100069.66;;;17.28;84.97
63088;BME280;49173;43.164;27.786;2022-11-20T06:26:23;100079.22;;;17.33;84.70
63088;BME280;49173;43.164;27.786;2022-11-20T06:28:50;100080.84;;;17.35;84.54
63088;BME280;49173;43.164;27.786;2022-11-20T06:31:19;100076.13;;;17.37;84.37
63088;BME280;49173;43.164;27.786;2022-11-20T06:33:45;100080.28;;;17.41;84.24
63088;BME280;49173;43.164;27.786;2022-11-20T06:36:14;100079.16;;;17.44;84.20
63088;BME280;49173;43.164;27.786;2022-11-20T06:38:40;100084.44;;;17.45;84.04
63088;BME280;49173;43.164;27.786;2022-11-20T06:41:08;100075.03;;;17.49;83.89
63088;BME280;49173;43.164;27.786;2022-11-20T06:43:35;100067.34;;;17.54;83.47
63088;BME280;49173;43.164;27.786;2022-11-20T06:46:01;100075.94;;;17.60;83.17
63088;BME280;49173;43.164;27.786;2022-11-20T06:48:27;100067.53;;;17.63;82.79
63088;BME280;49173;43.164;27.786;2022-11-20T06:50:54;100053.69;;;17.66;82.64
63088;BME280;49173;43.164;27.786;2022-11-20T06:53:19;100068.72;;;17.70;82.32
63088;BME280;49173;43.164;27.786;2022-11-20T06:55:46;100064.75;;;17.74;82.55
63088;BME280;49173;43.164;27.786;2022-11-20T06:58:13;100058.19;;;17.76;82.33
63088;BME280;49173;43.164;27.786;2022-11-20T07:00:40;100066.91;;;17.80;82.12
63088;BME280;49173;43.164;27.786;2022-11-20T07:03:07;100069.22;;;17.84;81.78
63088;BME280;49173;43.164;27.786;2022-11-20T07:05:34;100082.34;;;17.89;81.73
63088;BME280;49173;43.164;27.786;2022-11-20T07:08:01;100085.69;;;17.93;81.65
63088;BME280;49173;43.164;27.786;2022-11-20T07:10:27;100077.22;;;17.96;81.59
63088;BME280;49173;43.164;27.786;2022-11-20T07:12:54;100077.69;;;18.01;80.95
63088;BME280;49173;43.164;27.786;2022-11-20T07:15:22;100079.16;;;18.05;80.61
63088;BME280;49173;43.164;27.786;2022-11-20T07:17:48;100083.28;;;18.09;80.41
63088;BME280;49173;43.164;27.786;2022-11-20T07:20:15;100062.25;;;18.11;80.51
63088;BME280;49173;43.164;27.786;2022-11-20T07:22:41;100070.28;;;18.13;80.60
63088;BME280;49173;43.164;27.786;2022-11-20T07:25:07;100069.16;;;18.15;80.33
63088;BME280;49173;43.164;27.786;2022-11-20T07:27:33;100059.13;;;18.16;80.10
63088;BME280;49173;43.164;27.786;2022-11-20T07:30:00;100059.72;;;18.19;80.33
63088;BME280;49173;43.164;27.786;2022-11-20T07:32:26;100057.44;;;18.24;80.23
63088;BME280;49173;43.164;27.786;2022-11-20T07:34:52;100052.59;;;18.28;80.07
63088;BME280;49173;43.164;27.786;2022-11-20T07:37:18;100063.03;;;18.32;79.97
63088;BME280;49173;43.164;27.786;2022-11-20T07:39:44;100049.16;;;18.35;80.03
63088;BME280;49173;43.164;27.786;2022-11-20T07:42:10;100055.75;;;18.43;79.47
63088;BME280;49173;43.164;27.786;2022-11-20T07:44:37;100046.59;;;18.44;79.71
63088;BME280;49173;43.164;27.786;2022-11-20T07:47:03;100043.59;;;18.47;79.60
63088;BME280;49173;43.164;27.786;2022-11-20T07:49:29;100022.56;;;18.49;79.63
63088;BME280;49173;43.164;27.786;2022-11-20T07:51:55;100026.13;;;18.49;79.52
63088;BME280;49173;43.164;27.786;2022-11-20T07:54:21;100034.84;;;18.53;79.24
63088;BME280;49173;43.164;27.786;2022-11-20T07:56:48;100046.88;;;18.60;79.04
63088;BME280;49173;43.164;27.786;2022-11-20T07:59:14;100052.88;;;18.63;78.85
63088;BME280;49173;43.164;27.786;2022-11-20T08:01:41;100059.66;;;18.69;78.32
63088;BME280;49173;43.164;27.786;2022-11-20T08:04:08;100055.63;;;18.73;78.25
63088;BME280;49173;43.164;27.786;2022-11-20T08:06:34;100062.50;;;18.77;78.12
63088;BME280;49173;43.164;27.786;2022-11-20T08:09:00;100056.63;;;18.82;78.10
63088;BME280;49173;43.164;27.786;2022-11-20T08:11:26;100049.03;;;18.85;77.30
63088;BME280;49173;43.164;27.786;2022-11-20T08:14:10;100058.63;;;18.89;77.48
63088;BME280;49173;43.164;27.786;2022-11-20T08:16:40;100052.88;;;18.92;77.63
63088;BME280;49173;43.164;27.786;2022-11-20T08:19:07;100052.47;;;18.97;77.14
63088;BME280;49173;43.164;27.786;2022-11-20T08:21:33;100067.78;;;18.98;77.00
63088;BME280;49173;43.164;27.786;2022-11-20T08:23:59;100056.19;;;18.96;77.26
63088;BME280;49173;43.164;27.786;2022-11-20T08:26:25;100066.19;;;18.96;77.39
63088;BME280;49173;43.164;27.786;2022-11-20T08:28:58;100066.63;;;19.01;77.20
63088;BME280;49173;43.164;27.786;2022-11-20T08:31:25;100070.91;;;19.03;76.91
63088;BME280;49173;43.164;27.786;2022-11-20T08:33:51;100073.50;;;19.05;76.76
63088;BME280;49173;43.164;27.786;2022-11-20T08:36:18;100065.03;;;19.08;76.64
63088;BME280;49173;43.164;27.786;2022-11-20T08:38:51;100056.72;;;19.09;76.60
63088;BME280;49173;43.164;27.786;2022-11-20T08:41:17;100056.00;;;19.07;76.39
63088;BME280;49173;43.164;27.786;2022-11-20T08:43:54;100048.53;;;19.09;76.52
63088;BME280;49173;43.164;27.786;2022-11-20T08:46:20;100057.44;;;19.11;76.76
63088;BME280;49173;43.164;27.786;2022-11-20T08:48:46;100055.56;;;19.12;76.40
63088;BME280;49173;43.164;27.786;2022-11-20T08:51:12;100055.13;;;19.16;76.27
63088;BME280;49173;43.164;27.786;2022-11-20T08:53:39;100066.00;;;19.16;76.34
63088;BME280;49173;43.164;27.786;2022-11-20T08:56:05;100061.72;;;19.14;76.28
63088;BME280;49173;43.164;27.786;2022-11-20T08:58:31;100073.47;;;19.14;75.90
63088;BME280;49173;43.164;27.786;2022-11-20T09:00:57;100060.00;;;19.13;76.02
63088;BME280;49173;43.164;27.786;2022-11-20T09:03:23;100051.84;;;19.13;76.16
63088;BME280;49173;43.164;27.786;2022-11-20T09:05:48;100051.84;;;19.13;76.09
63088;BME280;49173;43.164;27.786;2022-11-20T09:08:14;100048.97;;;19.14;75.92
63088;BME280;49173;43.164;27.786;2022-11-20T09:10:40;100046.09;;;19.16;75.69
63088;BME280;49173;43.164;27.786;2022-11-20T09:13:06;100064.88;;;19.19;75.78
63088;BME280;49173;43.164;27.786;2022-11-20T09:15:31;100053.84;;;19.20;75.72
63088;BME280;49173;43.164;27.786;2022-11-20T09:18:02;100054.69;;;19.21;75.56
63088;BME280;49173;43.164;27.786;2022-11-20T09:20:29;100058.84;;;19.25;75.06
63088;BME280;49173;43.164;27.786;2022-11-20T09:22:57;100062.56;;;19.24;74.89
63088;BME280;49173;43.164;27.786;2022-11-20T09:25:23;100065.00;;;19.27;74.66
63088;BME280;49173;43.164;27.786;2022-11-20T09:27:56;100046.78;;;19.28;74.41
63088;BME280;49173;43.164;27.786;2022-11-20T09:30:24;100044.94;;;19.28;74.62
63088;BME280;49173;43.164;27.786;2022-11-20T09:32:50;100054.09;;;19.27;74.41
63088;BME280;49173;43.164;27.786;2022-11-20T09:35:16;100045.63;;;19.30;74.27
63088;BME280;49173;43.164;27.786;2022-11-20T09:37:43;100037.19;;;19.33;74.23
63088;BME280;49173;43.164;27.786;2022-11-20T09:40:21;100021.88;;;19.32;74.15
63088;BME280;49173;43.164;27.786;2022-11-20T09:42:56;100019.16;;;19.32;73.97
63088;BME280;49173;43.164;27.786;2022-11-20T09:51:35;100013.56;;;19.34;73.86
63088;BME280;49173;43.164;27.786;2022-11-20T09:54:12;100016.28;;;19.34;73.99
63088;BME280;49173;43.164;27.786;2022-11-20T09:56:44;100016.81;;;19.37;73.81
63088;BME280;49173;43.164;27.786;2022-11-20T09:59:46;100003.22;;;19.37;73.46
63088;BME280;49173;43.164;27.786;2022-11-20T10:05:23;100001.75;;;19.43;73.61
63088;BME280;49173;43.164;27.786;2022-11-20T10:10:42;99992.31;;;19.47;73.28
63088;BME280;49173;43.164;27.786;2022-11-20T10:13:23;99989.41;;;19.48;73.28
63088;BME280;49173;43.164;27.786;2022-11-20T10:22:03;99974.78;;;19.59;72.47
63088;BME280;49173;43.164;27.786;2022-11-20T10:30:18;99968.75;;;19.56;72.37
63088;BME280;49173;43.164;27.786;2022-11-20T10:32:54;99969.75;;;19.55;72.31
63088;BME280;49173;43.164;27.786;2022-11-20T10:35:43;99970.78;;;19.54;72.21
63088;BME280;49173;43.164;27.786;2022-11-20T10:38:21;99970.91;;;19.52;72.30
63088;BME280;49173;43.164;27.786;2022-11-20T10:40:57;99974.50;;;19.53;72.21
63088;BME280;49173;43.164;27.786;2022-11-20T10:43:44;99963.63;;;19.53;72.26
63088;BME280;49173;43.164;27.786;2022-11-20T10:46:18;99966.34;;;19.53;72.25
63088;BME280;49173;43.164;27.786;2022-11-20T10:48:45;99970.47;;;19.57;71.88
63088;BME280;49173;43.164;27.786;2022-11-20T10:51:44;99963.03;;;19.59;71.74
63088;BME280;49173;43.164;27.786;2022-11-20T10:54:39;99976.63;;;19.59;72.04
63088;BME280;49173;43.164;27.786;2022-11-20T10:57:20;99972.06;;;19.59;72.09
63088;BME280;49173;43.164;27.786;2022-11-20T11:00:00;99974.94;;;19.58;72.20
63088;BME280;49173;43.164;27.786;2022-11-20T11:02:53;99978.50;;;19.58;72.33
63088;BME280;49173;43.164;27.786;2022-11-20T11:07:55;99973.78;;;19.60;72.00
63088;BME280;49173;43.164;27.786;2022-11-20T11:11:12;99972.78;;;19.61;71.87
63088;BME280;49173;43.164;27.786;2022-11-20T11:13:26;99975.50;;;19.61;71.92
63088;BME280;49173;43.164;27.786;2022-11-20T11:15:52;99979.78;;;19.64;71.82
63088;BME280;49173;43.164;27.786;2022-11-20T11:18:27;99975.91;;;19.66;71.48
63088;BME280;49173;43.164;27.786;2022-11-20T11:20:54;99973.31;;;19.65;71.88
63088;BME280;49173;43.164;27.786;2022-11-20T11:23:38;99980.78;;;19.63;71.46
63088;BME280;49173;43.164;27.786;2022-11-20T11:26:17;99971.91;;;19.61;71.46
63088;BME280;49173;43.164;27.786;2022-11-20T11:28:53;99983.94;;;19.58;71.49
63088;BME280;49173;43.164;27.786;2022-11-20T11:31:37;99972.19;;;19.58;71.23
63088;BME280;49173;43.164;27.786;2022-11-20T11:34:07;99977.66;;;19.58;71.32
63088;BME280;49173;43.164;27.786;2022-11-20T11:36:34;99979.34;;;19.59;71.20
63088;BME280;49173;43.164;27.786;2022-11-20T11:39:03;99979.50;;;19.57;71.14
63088;BME280;49173;43.164;27.786;2022-11-20T11:41:32;99989.25;;;19.60;71.05
63088;BME280;49173;43.164;27.786;2022-11-20T11:44:30;99998.69;;;19.56;71.30
63088;BME280;49173;43.164;27.786;2022-11-20T11:47:54;99999.72;;;19.55;70.97
63088;BME280;49173;43.164;27.786;2022-11-20T11:50:26;99999.00;;;19.53;70.97
63088;BME280;49173;43.164;27.786;2022-11-20T11:53:14;100003.72;;;19.51;70.99
63088;BME280;49173;43.164;27.786;2022-11-20T11:55:42;100000.31;;;19.48;71.08
63088;BME280;49173;43.164;27.786;2022-11-20T12:01:17;100013.59;;;19.52;70.96
63088;BME280;49173;43.164;27.786;2022-11-20T12:04:00;100007.31;;;19.51;70.88
63088;BME280;49173;43.164;27.786;2022-11-20T12:06:29;100005.44;;;19.52;70.97
63088;BME280;49173;43.164;27.786;2022-11-20T12:09:03;99997.28;;;19.52;71.07
63088;BME280;49173;43.164;27.786;2022-11-20T12:14:37;100005.06;;;19.46;70.83
63088;BME280;49173;43.164;27.786;2022-11-20T12:17:03;100000.63;;;19.45;70.67
63088;BME280;49173;43.164;27.786;2022-11-20T12:19:31;100009.47;;;19.47;70.74
63088;BME280;49173;43.164;27.786;2022-11-20T12:27:39;100004.31;;;19.44;70.79
63088;BME280;49173;43.164;27.786;2022-11-20T12:30:10;99994.28;;;19.45;70.70
63088;BME280;49173;43.164;27.786;2022-11-20T12:43:33;99992.31;;;19.37;70.67
63088;BME280;49173;43.164;27.786;2022-11-20T12:46:52;99998.63;;;19.38;70.78
63088;BME280;49173;43.164;27.786;2022-11-20T12:52:30;100008.38;;;19.31;70.99
63088;BME280;49173;43.164;27.786;2022-11-20T12:56:12;99992.06;;;19.31;71.11
63088;BME280;49173;43.164;27.786;2022-11-20T12:58:15;99997.81;;;19.28;71.21
63088;BME280;49173;43.164;27.786;2022-11-20T13:00:54;99994.41;;;19.26;71.10
63088;BME280;49173;43.164;27.786;2022-11-20T13:03:34;99986.38;;;19.24;71.03
63088;BME280;49173;43.164;27.786;2022-11-20T13:08:43;99973.47;;;19.26;71.02
63088;BME280;49173;43.164;27.786;2022-11-20T13:14:34;99978.34;;;19.23;71.23
63088;BME280;49173;43.164;27.786;2022-11-20T13:19:54;99984.97;;;19.20;71.31
63088;BME280;49173;43.164;27.786;2022-11-20T13:22:44;99963.34;;;19.18;71.54
63088;BME280;49173;43.164;27.786;2022-11-20T13:25:21;99966.34;;;19.15;71.54
63088;BME280;49173;43.164;27.786;2022-11-20T13:27:48;99974.97;;;19.11;71.77
63088;BME280;49173;43.164;27.786;2022-11-20T13:30:19;99974.41;;;19.07;71.94
63088;BME280;49173;43.164;27.786;2022-11-20T13:33:21;99978.13;;;19.06;71.88
63088;BME280;49173;43.164;27.786;2022-11-20T13:36:05;99984.59;;;19.05;71.83
63088;BME280;49173;43.164;27.786;2022-11-20T13:38:48;99988.00;;;19.07;71.76
63088;BME280;49173;43.164;27.786;2022-11-20T13:41:26;99999.91;;;19.06;72.05
63088;BME280;49173;43.164;27.786;2022-11-20T13:46:40;100007.91;;;19.08;71.87
63088;BME280;49173;43.164;27.786;2022-11-20T13:49:55;100001.44;;;19.09;71.94
63088;BME280;49173;43.164;27.786;2022-11-20T13:54:59;99995.31;;;19.07;72.03
63088;BME280;49173;43.164;27.786;2022-11-20T14:00:30;99991.03;;;19.04;72.17
63088;BME280;49173;43.164;27.786;2022-11-20T14:03:08;99988.44;;;19.03;72.25
63088;BME280;49173;43.164;27.786;2022-11-20T14:05:40;99982.13;;;19.02;72.09
63088;BME280;49173;43.164;27.786;2022-11-20T14:08:23;99989.44;;;19.02;72.04
63088;BME280;49173;43.164;27.786;2022-11-20T14:10:50;99976.00;;;19.00;71.93
63088;BME280;49173;43.164;27.786;2022-11-20T14:13:20;99995.19;;;18.99;72.21
63088;BME280;49173;43.164;27.786;2022-11-20T14:15:46;99992.75;;;18.96;72.21
63088;BME280;49173;43.164;27.786;2022-11-20T14:18:25;99989.19;;;18.95;72.13
63088;BME280;49173;43.164;27.786;2022-11-20T14:20:51;99986.75;;;18.92;72.12
63088;BME280;49173;43.164;27.786;2022-11-20T14:23:28;99985.22;;;18.89;72.33